createdAt,value
2018-10-03T00:01:00.106Z,97.34
2018-10-03T00:02:00.573Z,97.36
2018-10-03T00:03:01.047Z,97.37
2018-10-03T00:04:01.519Z,97.37
2018-10-03T00:05:01.993Z,97.34
2018-10-03T00:06:02.462Z,97.38
2018-10-03T00:07:02.938Z,97.39
2018-10-03T00:08:03.409Z,97.38
2018-10-03T00:09:03.880Z,97.40
2018-10-03T00:10:04.351Z,97.38
2018-10-03T00:11:04.825Z,97.37
2018-10-03T00:12:05.295Z,97.40
2018-10-03T00:13:05.764Z,97.36
2018-10-03T00:14:06.233Z,97.36
2018-10-03T00:15:06.704Z,97.36
2018-10-03T00:16:07.176Z,97.37
2018-10-03T00:17:07.643Z,97.34
2018-10-03T00:18:08.115Z,97.36
2018-10-03T00:19:08.583Z,97.34
2018-10-03T00:20:09.053Z,97.37
2018-10-03T00:21:09.522Z,97.34
2018-10-03T00:22:09.995Z,97.33
2018-10-03T00:23:10.464Z,97.35
2018-10-03T00:24:10.933Z,97.36
2018-10-03T00:25:11.401Z,97.34
2018-10-03T00:26:11.869Z,97.34
2018-10-03T00:27:12.337Z,97.31
2018-10-03T00:28:12.806Z,97.37
2018-10-03T00:29:13.273Z,97.32
2018-10-03T00:30:13.743Z,97.34
2018-10-03T00:31:14.215Z,97.34
2018-10-03T00:32:14.680Z,97.33
2018-10-03T00:33:15.150Z,97.35
2018-10-03T00:34:15.618Z,97.36
2018-10-03T00:35:16.088Z,97.35
2018-10-03T00:36:16.557Z,97.35
2018-10-03T00:37:17.024Z,97.33
2018-10-03T00:38:17.496Z,97.34
2018-10-03T00:39:17.964Z,97.34
2018-10-03T00:40:18.433Z,97.34
2018-10-03T00:41:18.900Z,97.34
2018-10-03T00:42:19.372Z,97.31
2018-10-03T00:43:19.841Z,97.34
2018-10-03T00:44:20.310Z,97.33
2018-10-03T00:45:20.778Z,97.33
2018-10-03T00:46:21.250Z,97.33
2018-10-03T00:47:21.719Z,97.29
2018-10-03T00:48:22.188Z,97.33
2018-10-03T00:49:22.658Z,97.30
2018-10-03T00:50:23.126Z,97.30
2018-10-03T00:51:23.597Z,97.31
2018-10-03T00:52:24.067Z,97.31
2018-10-03T00:53:24.537Z,97.34
2018-10-03T00:54:25.007Z,97.34
2018-10-03T00:55:25.480Z,97.33
2018-10-03T00:56:25.947Z,97.33
2018-10-03T00:57:26.419Z,97.33
2018-10-03T00:58:26.890Z,97.33
2018-10-03T00:59:27.357Z,97.29
2018-10-03T01:00:27.830Z,97.32
2018-10-03T01:01:28.299Z,97.34
2018-10-03T01:02:28.773Z,97.33
2018-10-03T01:03:29.247Z,97.33
2018-10-03T01:04:29.716Z,97.33
2018-10-03T01:05:30.184Z,97.33
2018-10-03T01:06:30.656Z,97.30
2018-10-03T01:07:31.126Z,97.36
2018-10-03T01:08:31.599Z,97.29
2018-10-03T01:09:32.068Z,97.28
2018-10-03T01:10:32.539Z,97.28
2018-10-03T01:11:33.010Z,97.28
2018-10-03T01:12:33.483Z,97.31
2018-10-03T01:13:33.953Z,97.29
2018-10-03T01:14:34.427Z,97.27
2018-10-03T01:15:34.898Z,97.28
2018-10-03T01:16:35.370Z,97.28
2018-10-03T01:17:35.838Z,97.31
2018-10-03T01:18:36.311Z,97.30
2018-10-03T01:19:36.783Z,97.31
2018-10-03T01:20:37.254Z,97.28
2018-10-03T01:21:37.726Z,97.28
2018-10-03T01:22:38.222Z,97.28
2018-10-03T01:23:38.673Z,97.29
2018-10-03T01:24:39.142Z,97.29
2018-10-03T01:25:39.625Z,97.25
2018-10-03T01:26:40.088Z,97.30
2018-10-03T01:27:40.557Z,97.27
2018-10-03T01:28:41.029Z,97.28
2018-10-03T01:29:41.502Z,97.26
2018-10-03T01:30:41.973Z,97.25
2018-10-03T01:31:42.445Z,97.25
2018-10-03T01:32:42.920Z,97.25
2018-10-03T01:33:43.389Z,97.25
2018-10-03T01:34:43.863Z,97.25
2018-10-03T01:35:44.334Z,97.25
2018-10-03T01:36:44.807Z,97.25
2018-10-03T01:37:45.282Z,97.25
2018-10-03T01:38:45.752Z,97.24
2018-10-03T01:39:46.225Z,97.21
2018-10-03T01:40:46.699Z,97.22
2018-10-03T01:41:47.168Z,97.20
2018-10-03T01:42:47.642Z,97.23
2018-10-03T01:43:48.114Z,97.23
2018-10-03T01:44:48.589Z,97.25
2018-10-03T01:45:49.059Z,97.22
2018-10-03T01:46:49.533Z,97.21
2018-10-03T01:47:50.004Z,97.25
2018-10-03T01:48:50.481Z,97.22
2018-10-03T01:49:50.956Z,97.22
2018-10-03T01:50:51.424Z,97.21
2018-10-03T01:51:51.900Z,97.21
2018-10-03T01:52:52.369Z,97.22
2018-10-03T01:53:52.841Z,97.22
2018-10-03T01:54:53.314Z,97.23
2018-10-03T01:55:53.792Z,97.24
2018-10-03T01:56:54.260Z,97.21
2018-10-03T01:57:54.734Z,97.24
2018-10-03T01:58:55.205Z,97.22
2018-10-03T01:59:55.677Z,97.23
2018-10-03T02:00:56.152Z,97.22
2018-10-03T02:01:56.624Z,97.22
2018-10-03T02:02:57.097Z,97.23
2018-10-03T02:03:57.568Z,97.22
2018-10-03T02:04:58.047Z,97.21
2018-10-03T02:05:58.514Z,97.18
2018-10-03T02:06:58.989Z,97.18
2018-10-03T02:07:59.459Z,97.21
2018-10-03T02:08:59.932Z,97.21
2018-10-03T02:10:00.404Z,97.22
2018-10-03T02:11:00.877Z,97.21
2018-10-03T02:12:01.350Z,97.24
2018-10-03T02:13:01.821Z,97.21
2018-10-03T02:14:02.294Z,97.21
2018-10-03T02:15:02.767Z,97.19
2018-10-03T02:16:03.238Z,97.18
2018-10-03T02:17:03.714Z,97.17
2018-10-03T02:18:04.182Z,97.19
2018-10-03T02:19:04.647Z,97.18
2018-10-03T02:20:05.116Z,97.17
2018-10-03T02:21:05.586Z,97.16
2018-10-03T02:22:06.057Z,97.17
2018-10-03T02:23:06.525Z,97.18
2018-10-03T02:24:06.997Z,97.18
2018-10-03T02:25:07.470Z,97.19
2018-10-03T02:26:07.932Z,97.19
2018-10-03T02:27:08.402Z,97.16
2018-10-03T02:28:08.871Z,97.18
2018-10-03T02:29:09.342Z,97.16
2018-10-03T02:30:09.809Z,97.18
2018-10-03T02:31:10.280Z,97.20
2018-10-03T02:32:10.748Z,97.16
2018-10-03T02:33:11.219Z,97.16
2018-10-03T02:34:11.684Z,97.18
2018-10-03T02:35:12.154Z,97.15
2018-10-03T02:36:12.621Z,97.15
2018-10-03T02:37:13.090Z,97.17
2018-10-03T02:38:13.558Z,97.14
2018-10-03T02:39:14.031Z,97.13
2018-10-03T02:40:14.496Z,97.15
2018-10-03T02:41:14.967Z,97.16
2018-10-03T02:42:15.433Z,97.13
2018-10-03T02:43:15.903Z,97.14
2018-10-03T02:44:16.371Z,97.16
2018-10-03T02:45:16.842Z,97.18
2018-10-03T02:46:17.309Z,97.15
2018-10-03T02:47:17.780Z,97.15
2018-10-03T02:48:18.248Z,97.16
2018-10-03T02:49:18.717Z,97.15
2018-10-03T02:50:19.185Z,97.16
2018-10-03T02:51:19.655Z,97.13
2018-10-03T02:52:20.127Z,97.13
2018-10-03T02:53:20.594Z,97.12
2018-10-03T02:54:21.063Z,97.15
2018-10-03T02:55:21.532Z,97.13
2018-10-03T02:56:22.007Z,97.14
2018-10-03T02:57:22.478Z,97.13
2018-10-03T02:58:22.942Z,97.13
2018-10-03T02:59:23.412Z,97.12
2018-10-03T03:00:23.891Z,97.11
2018-10-03T03:01:24.352Z,97.13
2018-10-03T03:02:24.822Z,97.12
2018-10-03T03:03:25.292Z,97.15
2018-10-03T03:04:25.763Z,97.12
2018-10-03T03:05:26.231Z,97.12
2018-10-03T03:06:26.705Z,97.11
2018-10-03T03:07:27.173Z,97.11
2018-10-03T03:08:27.699Z,97.11
2018-10-03T03:09:28.113Z,97.11
2018-10-03T03:10:28.583Z,97.09
2018-10-03T03:12:29.524Z,97.10
2018-10-03T03:13:29.997Z,97.10
2018-10-03T03:14:30.465Z,97.10
2018-10-03T03:15:30.939Z,97.09
2018-10-03T03:16:31.407Z,97.09
2018-10-03T03:17:31.878Z,97.09
2018-10-03T03:18:32.348Z,97.09
2018-10-03T03:19:32.822Z,97.09
2018-10-03T03:20:33.290Z,97.10
2018-10-03T03:21:33.761Z,97.10
2018-10-03T03:22:34.232Z,97.10
2018-10-03T03:23:34.705Z,97.10
2018-10-03T03:24:35.175Z,97.11
2018-10-03T03:25:35.646Z,97.11
2018-10-03T03:26:36.118Z,97.11
2018-10-03T03:27:36.588Z,97.08
2018-10-03T03:28:37.061Z,97.09
2018-10-03T03:29:37.533Z,97.11
2018-10-03T03:30:38.051Z,97.09
2018-10-03T03:31:38.473Z,97.09
2018-10-03T03:32:38.947Z,97.11
2018-10-03T03:33:39.484Z,97.12
2018-10-03T03:34:39.887Z,97.10
2018-10-03T03:35:40.358Z,97.11
2018-10-03T03:36:40.892Z,97.11
2018-10-03T03:37:41.302Z,97.10
2018-10-03T03:38:41.774Z,97.11
2018-10-03T03:39:42.249Z,97.10
2018-10-03T03:40:42.718Z,97.06
2018-10-03T03:41:43.213Z,97.10
2018-10-03T03:42:43.658Z,97.10
2018-10-03T03:43:44.133Z,97.10
2018-10-03T03:44:44.604Z,97.10
2018-10-03T03:45:45.076Z,97.11
2018-10-03T03:46:45.545Z,97.11
2018-10-03T03:47:46.017Z,97.12
2018-10-03T03:48:46.488Z,97.12
2018-10-03T03:49:46.964Z,97.11
2018-10-03T03:50:47.435Z,97.11
2018-10-03T03:51:47.905Z,97.11
2018-10-03T03:52:48.378Z,97.11
2018-10-03T03:53:48.849Z,97.12
2018-10-03T03:54:49.326Z,97.12
2018-10-03T03:55:49.790Z,97.12
2018-10-03T03:56:50.263Z,97.12
2018-10-03T03:57:50.736Z,97.12
2018-10-03T03:58:51.207Z,97.12
2018-10-03T03:59:51.679Z,97.13
2018-10-03T04:00:52.154Z,97.10
2018-10-03T04:01:52.625Z,97.13
2018-10-03T04:02:53.095Z,97.13
2018-10-03T04:03:53.567Z,97.12
2018-10-03T04:04:54.041Z,97.12
2018-10-03T04:05:54.512Z,97.12
2018-10-03T04:06:54.987Z,97.12
2018-10-03T04:07:55.455Z,97.12
2018-10-03T04:08:55.979Z,97.12
2018-10-03T04:09:56.399Z,97.12
2018-10-03T04:10:56.871Z,97.13
2018-10-03T04:11:57.346Z,97.14
2018-10-03T04:12:57.817Z,97.14
2018-10-03T04:13:58.288Z,97.14
2018-10-03T04:14:58.759Z,97.15
2018-10-03T04:15:59.233Z,97.14
2018-10-03T04:16:59.707Z,97.12
2018-10-03T04:18:00.176Z,97.11
2018-10-03T04:19:00.649Z,97.11
2018-10-03T04:20:01.120Z,97.11
2018-10-03T04:21:01.592Z,97.11
2018-10-03T04:22:02.068Z,97.11
2018-10-03T04:23:02.537Z,97.15
2018-10-03T04:24:03.010Z,97.12
2018-10-03T04:25:03.482Z,97.12
2018-10-03T04:26:03.955Z,97.11
2018-10-03T04:27:04.430Z,97.11
2018-10-03T04:28:04.899Z,97.10
2018-10-03T04:29:05.372Z,97.10
2018-10-03T04:30:05.843Z,97.10
2018-10-03T04:31:06.317Z,97.10
2018-10-03T04:32:06.789Z,97.13
2018-10-03T04:33:07.260Z,97.10
2018-10-03T04:34:07.733Z,97.11
2018-10-03T04:35:08.206Z,97.09
2018-10-03T04:36:08.677Z,97.10
2018-10-03T04:37:09.151Z,97.11
2018-10-03T04:38:09.622Z,97.11
2018-10-03T04:39:10.096Z,97.08
2018-10-03T04:40:10.565Z,97.07
2018-10-03T04:41:11.039Z,97.07
2018-10-03T04:42:11.528Z,97.09
2018-10-03T04:43:11.983Z,97.08
2018-10-03T04:44:12.456Z,97.09
2018-10-03T04:45:12.929Z,97.09
2018-10-03T04:46:13.404Z,97.10
2018-10-03T04:47:13.872Z,97.10
2018-10-03T04:48:14.348Z,97.08
2018-10-03T04:49:14.819Z,97.09
2018-10-03T04:50:15.291Z,97.07
2018-10-03T04:51:15.765Z,97.10
2018-10-03T04:52:16.237Z,97.07
2018-10-03T04:53:16.707Z,97.07
2018-10-03T04:54:17.181Z,97.07
2018-10-03T04:55:17.653Z,97.07
2018-10-03T04:56:18.126Z,97.08
2018-10-03T04:57:18.597Z,97.08
2018-10-03T04:58:19.071Z,97.08
2018-10-03T04:59:19.542Z,97.09
2018-10-03T05:00:20.017Z,97.09
2018-10-03T05:01:20.487Z,97.09
2018-10-03T05:02:20.959Z,97.09
2018-10-03T05:03:21.433Z,97.08
2018-10-03T05:04:21.907Z,97.07
2018-10-03T05:05:22.377Z,97.08
2018-10-03T05:06:22.851Z,97.06
2018-10-03T05:07:23.322Z,97.07
2018-10-03T05:08:23.796Z,97.04
2018-10-03T05:09:24.268Z,97.08
2018-10-03T05:10:24.739Z,97.05
2018-10-03T05:11:25.288Z,97.05
2018-10-03T05:12:25.683Z,97.06
2018-10-03T05:13:26.157Z,97.05
2018-10-03T05:14:26.633Z,97.07
2018-10-03T05:15:27.103Z,97.06
2018-10-03T05:16:27.574Z,97.05
2018-10-03T05:17:28.048Z,97.07
2018-10-03T05:18:28.517Z,97.05
2018-10-03T05:19:28.991Z,97.06
2018-10-03T05:20:29.462Z,97.07
2018-10-03T05:21:29.934Z,97.07
2018-10-03T05:22:30.408Z,97.06
2018-10-03T05:23:30.881Z,97.06
2018-10-03T05:24:31.359Z,97.07
2018-10-03T05:25:31.826Z,97.07
2018-10-03T05:26:32.297Z,97.07
2018-10-03T05:27:32.770Z,97.07
2018-10-03T05:28:33.242Z,97.07
2018-10-03T05:29:33.716Z,97.07
2018-10-03T05:30:34.189Z,97.07
2018-10-03T05:31:34.659Z,97.07
2018-10-03T05:32:35.132Z,97.07
2018-10-03T05:33:35.609Z,97.08
2018-10-03T05:34:36.079Z,97.08
2018-10-03T05:35:36.549Z,97.08
2018-10-03T05:36:37.021Z,97.08
2018-10-03T05:37:37.493Z,97.08
2018-10-03T05:38:37.969Z,97.08
2018-10-03T05:39:38.452Z,97.05
2018-10-03T05:40:38.912Z,97.09
2018-10-03T05:41:39.385Z,97.05
2018-10-03T05:42:39.857Z,97.08
2018-10-03T05:43:40.330Z,97.04
2018-10-03T05:44:40.805Z,97.08
2018-10-03T05:45:41.276Z,97.07
2018-10-03T05:46:41.745Z,97.07
2018-10-03T05:47:42.219Z,97.07
2018-10-03T05:48:42.728Z,97.07
2018-10-03T05:49:43.163Z,97.07
2018-10-03T05:50:43.636Z,97.08
2018-10-03T05:51:44.108Z,97.08
2018-10-03T05:52:44.581Z,97.09
2018-10-03T05:53:45.053Z,97.09
2018-10-03T05:54:45.583Z,97.09
2018-10-03T05:55:45.996Z,97.09
2018-10-03T05:56:46.471Z,97.09
2018-10-03T05:57:46.944Z,97.09
2018-10-03T05:58:47.420Z,97.09
2018-10-03T05:59:47.939Z,97.10
2018-10-03T06:00:48.360Z,97.10
2018-10-03T06:01:48.837Z,97.07
2018-10-03T06:02:49.321Z,97.07
2018-10-03T06:03:49.780Z,97.07
2018-10-03T06:04:50.251Z,97.09
2018-10-03T06:05:50.728Z,97.10
2018-10-03T06:06:51.196Z,97.09
2018-10-03T06:07:51.670Z,97.10
2018-10-03T06:08:52.143Z,97.09
2018-10-03T06:09:52.615Z,97.10
2018-10-03T06:10:53.085Z,97.10
2018-10-03T06:11:53.557Z,97.11
2018-10-03T06:12:54.034Z,97.11
2018-10-03T06:13:54.503Z,97.12
2018-10-03T06:14:54.975Z,97.12
2018-10-03T06:15:55.448Z,97.10
2018-10-03T06:16:55.920Z,97.12
2018-10-03T06:17:56.392Z,97.11
2018-10-03T06:18:56.865Z,97.10
2018-10-03T06:19:57.339Z,97.11
2018-10-03T06:20:57.811Z,97.11
2018-10-03T06:21:58.282Z,97.12
2018-10-03T06:22:58.757Z,97.12
2018-10-03T06:23:59.228Z,97.11
2018-10-03T06:24:59.701Z,97.11
2018-10-03T06:26:00.175Z,97.13
2018-10-03T06:27:00.646Z,97.12
2018-10-03T06:28:01.121Z,97.12
2018-10-03T06:29:01.591Z,97.12
2018-10-03T06:30:02.063Z,97.12
2018-10-03T06:31:02.540Z,97.12
2018-10-03T06:32:03.009Z,97.15
2018-10-03T06:33:03.482Z,97.12
2018-10-03T06:34:03.954Z,97.12
2018-10-03T06:35:04.433Z,97.12
2018-10-03T06:36:04.899Z,97.12
2018-10-03T06:37:05.372Z,97.11
2018-10-03T06:38:05.843Z,97.12
2018-10-03T06:39:06.316Z,97.12
2018-10-03T06:40:06.790Z,97.12
2018-10-03T06:41:07.264Z,97.12
2018-10-03T06:42:07.736Z,97.13
2018-10-03T06:43:08.208Z,97.13
2018-10-03T06:44:08.683Z,97.13
2018-10-03T06:45:09.152Z,97.13
2018-10-03T06:46:09.628Z,97.13
2018-10-03T06:47:10.104Z,97.12
2018-10-03T06:48:10.569Z,97.15
2018-10-03T06:49:11.047Z,97.15
2018-10-03T06:50:11.515Z,97.15
2018-10-03T06:51:11.988Z,97.15
2018-10-03T06:52:12.462Z,97.13
2018-10-03T06:53:12.933Z,97.13
2018-10-03T06:54:13.405Z,97.17
2018-10-03T06:55:13.878Z,97.15
2018-10-03T06:56:14.351Z,97.14
2018-10-03T06:57:14.822Z,97.16
2018-10-03T06:58:15.296Z,97.15
2018-10-03T06:59:15.770Z,97.15
2018-10-03T07:00:16.242Z,97.15
2018-10-03T07:01:16.713Z,97.16
2018-10-03T07:02:17.187Z,97.16
2018-10-03T07:03:17.662Z,97.16
2018-10-03T07:04:18.132Z,97.16
2018-10-03T07:05:18.607Z,97.17
2018-10-03T07:06:19.076Z,97.17
2018-10-03T07:07:19.549Z,97.18
2018-10-03T07:08:20.021Z,97.16
2018-10-03T07:09:20.494Z,97.18
2018-10-03T07:10:20.968Z,97.17
2018-10-03T07:11:21.443Z,97.19
2018-10-03T07:12:21.913Z,97.21
2018-10-03T07:13:22.387Z,97.17
2018-10-03T07:14:22.857Z,97.21
2018-10-03T07:15:23.332Z,97.21
2018-10-03T07:16:23.801Z,97.17
2018-10-03T07:17:24.274Z,97.19
2018-10-03T07:18:24.750Z,97.18
2018-10-03T07:19:25.222Z,97.21
2018-10-03T07:20:25.693Z,97.22
2018-10-03T07:21:26.165Z,97.18
2018-10-03T07:22:26.637Z,97.22
2018-10-03T07:23:27.111Z,97.19
2018-10-03T07:24:27.584Z,97.22
2018-10-03T07:25:28.056Z,97.18
2018-10-03T07:26:28.529Z,97.22
2018-10-03T07:27:29.002Z,97.18
2018-10-03T07:28:29.476Z,97.22
2018-10-03T07:29:29.967Z,97.23
2018-10-03T07:30:30.417Z,97.20
2018-10-03T07:31:30.890Z,97.23
2018-10-03T07:32:31.366Z,97.23
2018-10-03T07:33:31.836Z,97.23
2018-10-03T07:34:32.309Z,97.22
2018-10-03T07:35:32.782Z,97.23
2018-10-03T07:36:33.253Z,97.22
2018-10-03T07:37:33.727Z,97.22
2018-10-03T07:38:34.200Z,97.23
2018-10-03T07:39:34.673Z,97.21
2018-10-03T07:40:35.150Z,97.23
2018-10-03T07:41:35.618Z,97.23
2018-10-03T07:42:36.093Z,97.27
2018-10-03T07:43:36.562Z,97.24
2018-10-03T07:44:37.038Z,97.23
2018-10-03T07:45:37.509Z,97.24
2018-10-03T07:46:37.981Z,97.24
2018-10-03T07:47:38.453Z,97.24
2018-10-03T07:48:38.926Z,97.24
2018-10-03T07:49:39.399Z,97.24
2018-10-03T07:50:39.879Z,97.24
2018-10-03T07:51:40.344Z,97.28
2018-10-03T07:52:40.821Z,97.24
2018-10-03T07:53:41.333Z,97.27
2018-10-03T07:54:41.763Z,97.24
2018-10-03T07:55:42.236Z,97.27
2018-10-03T07:56:42.708Z,97.24
2018-10-03T07:57:43.182Z,97.26
2018-10-03T07:58:43.654Z,97.27
2018-10-03T07:59:44.167Z,97.29
2018-10-03T08:00:44.599Z,97.27
2018-10-03T08:01:45.072Z,97.31
2018-10-03T08:02:45.547Z,97.26
2018-10-03T08:03:46.020Z,97.28
2018-10-03T08:04:46.493Z,97.29
2018-10-03T08:05:46.963Z,97.29
2018-10-03T08:06:47.436Z,97.29
2018-10-03T08:07:47.909Z,97.30
2018-10-03T08:08:48.382Z,97.26
2018-10-03T08:09:48.866Z,97.28
2018-10-03T08:10:49.330Z,97.30
2018-10-03T08:11:49.852Z,97.29
2018-10-03T08:12:50.278Z,97.29
2018-10-03T08:13:50.749Z,97.29
2018-10-03T08:14:51.223Z,97.34
2018-10-03T08:15:51.694Z,97.33
2018-10-03T08:16:52.167Z,97.28
2018-10-03T08:17:52.639Z,97.30
2018-10-03T08:18:53.113Z,97.33
2018-10-03T08:19:53.584Z,97.30
2018-10-03T08:20:54.059Z,97.34
2018-10-03T08:21:54.533Z,97.35
2018-10-03T08:22:55.005Z,97.36
2018-10-03T08:23:55.480Z,97.32
2018-10-03T08:24:55.949Z,97.36
2018-10-03T08:25:56.422Z,97.32
2018-10-03T08:26:56.897Z,97.32
2018-10-03T08:27:57.367Z,97.36
2018-10-03T08:28:57.840Z,97.34
2018-10-03T08:29:58.315Z,97.36
2018-10-03T08:30:58.784Z,97.33
2018-10-03T08:31:59.259Z,97.36
2018-10-03T08:32:59.851Z,97.37
2018-10-03T08:34:00.199Z,97.37
2018-10-03T08:35:00.672Z,97.38
2018-10-03T08:36:01.142Z,97.38
2018-10-03T08:37:01.612Z,97.38
2018-10-03T08:38:02.084Z,97.38
2018-10-03T08:39:02.556Z,97.38
2018-10-03T08:40:03.024Z,97.38
2018-10-03T08:41:03.496Z,97.39
2018-10-03T08:42:03.965Z,97.39
2018-10-03T08:43:04.437Z,97.39
2018-10-03T08:44:04.912Z,97.40
2018-10-03T08:45:05.373Z,97.39
2018-10-03T08:46:05.843Z,97.39
2018-10-03T08:47:06.315Z,97.39
2018-10-03T08:48:06.783Z,97.39
2018-10-03T08:49:07.252Z,97.42
2018-10-03T08:50:07.722Z,97.38
2018-10-03T08:51:08.194Z,97.38
2018-10-03T08:52:08.659Z,97.38
2018-10-03T08:53:09.127Z,97.42
2018-10-03T08:54:09.595Z,97.40
2018-10-03T08:55:10.064Z,97.42
2018-10-03T08:56:10.534Z,97.42
2018-10-03T08:57:11.001Z,97.42
2018-10-03T08:58:11.525Z,97.43
2018-10-03T08:59:11.942Z,97.45
2018-10-03T09:00:12.411Z,97.45
2018-10-03T09:01:12.878Z,97.42
2018-10-03T09:02:13.347Z,97.44
2018-10-03T09:03:13.818Z,97.44
2018-10-03T09:04:14.289Z,97.44
2018-10-03T09:05:14.755Z,97.45
2018-10-03T09:06:15.226Z,97.46
2018-10-03T09:07:15.697Z,97.46
2018-10-03T09:08:16.166Z,97.46
2018-10-03T09:09:16.635Z,97.46
2018-10-03T09:10:17.110Z,97.44
2018-10-03T09:11:17.575Z,97.45
2018-10-03T09:12:18.045Z,97.45
2018-10-03T09:13:18.515Z,97.45
2018-10-03T09:14:18.986Z,97.44
2018-10-03T09:15:19.455Z,97.44
2018-10-03T09:16:19.924Z,97.45
2018-10-03T09:17:20.398Z,97.46
2018-10-03T09:18:20.866Z,97.46
2018-10-03T09:19:21.337Z,97.46
2018-10-03T09:20:21.806Z,97.47
2018-10-03T09:21:22.329Z,97.47
2018-10-03T09:22:22.754Z,97.47
2018-10-03T09:23:23.221Z,97.48
2018-10-03T09:24:23.693Z,97.49
2018-10-03T09:25:24.164Z,97.50
2018-10-03T09:26:24.632Z,97.51
2018-10-03T09:27:25.104Z,97.50
2018-10-03T09:28:25.651Z,97.50
2018-10-03T09:29:26.046Z,97.50
2018-10-03T09:30:26.519Z,97.49
2018-10-03T09:31:26.989Z,97.49
2018-10-03T09:32:27.461Z,97.49
2018-10-03T09:33:27.936Z,97.48
2018-10-03T09:34:28.403Z,97.48
2018-10-03T09:35:28.879Z,97.47
2018-10-03T09:36:29.348Z,97.47
2018-10-03T09:37:29.818Z,97.50
2018-10-03T09:38:30.293Z,97.50
2018-10-03T09:39:30.786Z,97.51
2018-10-03T09:40:31.235Z,97.52
2018-10-03T09:41:31.708Z,97.51
2018-10-03T09:42:32.184Z,97.51
2018-10-03T09:43:32.656Z,97.48
2018-10-03T09:44:33.138Z,97.49
2018-10-03T09:45:33.596Z,97.49
2018-10-03T09:46:34.117Z,97.53
2018-10-03T09:47:34.543Z,97.54
2018-10-03T09:48:35.013Z,97.53
2018-10-03T09:49:35.487Z,97.57
2018-10-03T09:50:35.959Z,97.54
2018-10-03T09:51:36.431Z,97.55
2018-10-03T09:52:36.903Z,97.55
2018-10-03T09:53:37.375Z,97.56
2018-10-03T09:54:37.847Z,97.55
2018-10-03T09:55:38.322Z,97.56
2018-10-03T09:56:38.947Z,97.55
2018-10-03T09:57:39.267Z,97.57
2018-10-03T09:58:39.743Z,97.58
2018-10-03T09:59:40.212Z,97.56
2018-10-03T10:00:40.704Z,97.59
2018-10-03T10:01:41.158Z,97.59
2018-10-03T10:02:41.633Z,97.60
2018-10-03T10:03:42.105Z,97.57
2018-10-03T10:04:42.577Z,97.62
2018-10-03T10:05:43.049Z,97.58
2018-10-03T10:06:43.526Z,97.56
2018-10-03T10:07:43.996Z,97.59
2018-10-03T10:08:44.471Z,97.58
2018-10-03T10:09:44.941Z,97.58
2018-10-03T10:10:45.417Z,97.58
2018-10-03T10:11:45.989Z,97.60
2018-10-03T10:12:46.360Z,97.62
2018-10-03T10:13:46.833Z,97.59
2018-10-03T10:14:47.309Z,97.61
2018-10-03T10:15:47.780Z,97.61
2018-10-03T10:16:48.253Z,97.61
2018-10-03T10:17:48.721Z,97.61
2018-10-03T10:18:49.193Z,97.61
2018-10-03T10:19:49.667Z,97.63
2018-10-03T10:20:50.206Z,97.61
2018-10-03T10:21:50.609Z,97.61
2018-10-03T10:22:51.080Z,97.62
2018-10-03T10:23:51.552Z,97.63
2018-10-03T10:24:52.022Z,97.64
2018-10-03T10:25:52.491Z,97.64
2018-10-03T10:26:52.960Z,97.64
2018-10-03T10:27:53.434Z,97.64
2018-10-03T10:28:53.903Z,97.64
2018-10-03T10:29:54.378Z,97.65
2018-10-03T10:30:54.840Z,97.65
2018-10-03T10:31:55.442Z,97.65
2018-10-03T10:32:55.951Z,97.64
2018-10-03T10:33:56.253Z,97.65
2018-10-03T10:34:56.718Z,97.64
2018-10-03T10:35:57.186Z,97.65
2018-10-03T10:36:57.655Z,97.67
2018-10-03T10:37:58.127Z,97.68
2018-10-03T10:38:58.596Z,97.68
2018-10-03T10:39:59.132Z,97.67
2018-10-03T10:40:59.602Z,97.68
2018-10-03T10:42:00.001Z,97.68
2018-10-03T10:43:00.471Z,97.67
2018-10-03T10:44:00.940Z,97.67
2018-10-03T10:45:01.409Z,97.67
2018-10-03T10:46:01.877Z,97.72
2018-10-03T10:47:02.348Z,97.69
2018-10-03T10:48:02.816Z,97.69
2018-10-03T10:49:03.287Z,97.71
2018-10-03T10:50:03.783Z,97.70
2018-10-03T10:51:04.232Z,97.69
2018-10-03T10:52:04.696Z,97.73
2018-10-03T10:53:05.165Z,97.70
2018-10-03T10:54:05.634Z,97.71
2018-10-03T10:55:06.105Z,97.73
2018-10-03T10:56:06.579Z,97.71
2018-10-03T10:57:07.050Z,97.74
2018-10-03T10:58:07.515Z,97.74
2018-10-03T10:59:07.987Z,97.71
2018-10-03T11:00:08.457Z,97.73
2018-10-03T11:01:08.929Z,97.76
2018-10-03T11:02:09.399Z,97.71
2018-10-03T11:03:09.869Z,97.74
2018-10-03T11:04:10.343Z,97.75
2018-10-03T11:05:10.813Z,97.74
2018-10-03T11:06:11.319Z,97.76
2018-10-03T11:07:11.753Z,97.75
2018-10-03T11:08:12.230Z,97.74
2018-10-03T11:09:12.696Z,97.74
2018-10-03T11:10:13.167Z,97.74
2018-10-03T11:11:13.639Z,97.76
2018-10-03T11:12:14.111Z,97.76
2018-10-03T11:13:14.582Z,97.77
2018-10-03T11:14:15.054Z,97.77
2018-10-03T11:15:15.525Z,97.78
2018-10-03T11:16:15.997Z,97.77
2018-10-03T11:17:16.520Z,97.77
2018-10-03T11:18:16.942Z,97.77
2018-10-03T11:19:17.412Z,97.77
2018-10-03T11:20:17.886Z,97.76
2018-10-03T11:21:18.358Z,97.78
2018-10-03T11:22:18.829Z,97.77
2018-10-03T11:23:19.310Z,97.81
2018-10-03T11:24:20.000Z,97.81
2018-10-03T11:25:20.245Z,97.81
2018-10-03T11:26:20.748Z,97.77
2018-10-03T11:27:21.242Z,97.81
2018-10-03T11:28:21.665Z,97.81
2018-10-03T11:29:22.137Z,97.81
2018-10-03T11:30:22.607Z,97.80
2018-10-03T11:31:23.082Z,97.79
2018-10-03T11:32:23.554Z,97.78
2018-10-03T11:33:24.028Z,97.78
2018-10-03T11:34:24.498Z,97.83
2018-10-03T11:35:24.972Z,97.81
2018-10-03T11:36:25.446Z,97.81
2018-10-03T11:37:25.919Z,97.81
2018-10-03T11:38:26.391Z,97.80
2018-10-03T11:39:26.864Z,97.81
2018-10-03T11:40:27.336Z,97.83
2018-10-03T11:41:27.810Z,97.79
2018-10-03T11:42:28.283Z,97.82
2018-10-03T11:43:28.755Z,97.82
2018-10-03T11:44:29.230Z,97.82
2018-10-03T11:45:29.703Z,97.82
2018-10-03T11:46:30.175Z,97.82
2018-10-03T11:47:30.648Z,97.81
2018-10-03T11:48:31.121Z,97.81
2018-10-03T11:49:31.595Z,97.80
2018-10-03T11:50:32.076Z,97.81
2018-10-03T11:51:32.538Z,97.83
2018-10-03T11:52:33.012Z,97.82
2018-10-03T11:53:33.486Z,97.81
2018-10-03T11:54:33.959Z,97.81
2018-10-03T11:55:34.436Z,97.81
2018-10-03T11:56:34.901Z,97.80
2018-10-03T11:57:35.373Z,97.80
2018-10-03T11:58:35.847Z,97.82
2018-10-03T11:59:36.381Z,97.80
2018-10-03T12:00:36.789Z,97.80
2018-10-03T12:01:37.266Z,97.81
2018-10-03T12:02:37.752Z,97.80
2018-10-03T12:03:38.266Z,97.80
2018-10-03T12:04:38.671Z,97.80
2018-10-03T12:05:39.147Z,97.79
2018-10-03T12:06:39.656Z,97.82
2018-10-03T12:07:40.084Z,97.82
2018-10-03T12:08:40.555Z,97.83
2018-10-03T12:09:41.023Z,97.83
2018-10-03T12:10:41.492Z,97.83
2018-10-03T12:11:41.960Z,97.81
2018-10-03T12:12:42.432Z,97.82
2018-10-03T12:13:42.936Z,97.84
2018-10-03T12:14:43.368Z,97.84
2018-10-03T12:15:43.838Z,97.85
2018-10-03T12:16:44.307Z,97.84
2018-10-03T12:17:44.777Z,97.83
2018-10-03T12:18:45.247Z,97.84
2018-10-03T12:19:45.715Z,97.84
2018-10-03T12:20:46.184Z,97.85
2018-10-03T12:21:46.654Z,97.85
2018-10-03T12:22:47.125Z,97.85
2018-10-03T12:23:47.592Z,97.85
2018-10-03T12:24:48.061Z,97.85
2018-10-03T12:25:48.532Z,97.85
2018-10-03T12:26:49.004Z,97.85
2018-10-03T12:27:49.469Z,97.85
2018-10-03T12:28:49.943Z,97.85
2018-10-03T12:29:50.410Z,97.86
2018-10-03T12:30:50.881Z,97.87
2018-10-03T12:31:51.349Z,97.87
2018-10-03T12:32:51.819Z,97.87
2018-10-03T12:33:52.305Z,97.87
2018-10-03T12:34:52.761Z,97.88
2018-10-03T12:35:53.228Z,97.89
2018-10-03T12:36:53.699Z,97.89
2018-10-03T12:37:54.171Z,97.89
2018-10-03T12:38:54.638Z,97.88
2018-10-03T12:39:55.110Z,97.89
2018-10-03T12:40:55.579Z,97.89
2018-10-03T12:41:56.087Z,97.88
2018-10-03T12:42:56.521Z,97.88
2018-10-03T12:43:56.992Z,97.88
2018-10-03T12:44:57.471Z,97.88
2018-10-03T12:45:57.933Z,97.89
2018-10-03T12:46:58.406Z,97.89
2018-10-03T12:47:58.876Z,97.90
2018-10-03T12:48:59.348Z,97.91
2018-10-03T12:49:59.817Z,97.91
2018-10-03T12:51:00.288Z,97.91
2018-10-03T12:52:00.761Z,97.91
2018-10-03T12:53:01.255Z,97.91
2018-10-03T12:54:01.707Z,97.91
2018-10-03T12:55:02.204Z,97.90
2018-10-03T12:56:02.647Z,97.90
2018-10-03T12:57:03.123Z,97.91
2018-10-03T12:58:03.590Z,97.92
2018-10-03T12:59:04.061Z,97.92
2018-10-03T13:00:04.534Z,97.92